sensor_id;sensor_type;location;lat;lon;timestamp;temperature;humidity
25264;DHT22;13211;51.796;5.808;2022-11-20T16:49:17;-0.80;99.90
25264;DHT22;13211;51.796;5.808;2022-11-20T16:51:45;4.60;99.90
25264;DHT22;13211;51.796;5.808;2022-11-20T16:54:13;4.50;99.90
25264;DHT22;13211;51.796;5.808;2022-11-20T16:56:46;4.50;99.90
25264;DHT22;13211;51.796;5.808;2022-11-20T16:59:14;4.50;99.90
25264;DHT22;13211;51.796;5.808;2022-11-20T17:01:42;4.50;99.90
25264;DHT22;13211;51.796;5.808;2022-11-20T17:04:10;4.50;99.90
25264;DHT22;13211;51.796;5.808;2022-11-20T17:06:40;4.50;99.90
25264;DHT22;13211;51.796;5.808;2022-11-20T17:09:09;4.50;99.90
25264;DHT22;13211;51.796;5.808;2022-11-20T17:11:40;4.50;99.90
25264;DHT22;13211;51.796;5.808;2022-11-20T17:14:08;4.50;99.90
25264;DHT22;13211;51.796;5.808;2022-11-20T17:16:37;4.50;99.90
25264;DHT22;13211;51.796;5.808;2022-11-20T17:19:04;4.50;99.90
25264;DHT22;13211;51.796;5.808;2022-11-20T17:21:33;4.60;99.90
25264;DHT22;13211;51.796;5.808;2022-11-20T17:24:06;4.60;99.90
25264;DHT22;13211;51.796;5.808;2022-11-20T17:26:35;4.60;99.90
25264;DHT22;13211;51.796;5.808;2022-11-20T17:29:09;4.60;99.90
25264;DHT22;13211;51.796;5.808;2022-11-20T17:31:37;4.60;99.90
25264;DHT22;13211;51.796;5.808;2022-11-20T17:34:07;4.60;99.90
25264;DHT22;13211;51.796;5.808;2022-11-20T17:36:35;4.70;99.90
25264;DHT22;13211;51.796;5.808;2022-11-20T17:39:19;4.70;99.90
25264;DHT22;13211;51.796;5.808;2022-11-20T17:41:47;4.70;99.90
25264;DHT22;13211;51.796;5.808;2022-11-20T17:44:38;4.80;99.90
25264;DHT22;13211;51.796;5.808;2022-11-20T17:47:06;4.80;99.90
25264;DHT22;13211;51.796;5.808;2022-11-20T17:49:33;4.80;99.90
25264;DHT22;13211;51.796;5.808;2022-11-20T17:52:02;4.80;99.90
25264;DHT22;13211;51.796;5.808;2022-11-20T17:54:30;4.90;99.90
25264;DHT22;13211;51.796;5.808;2022-11-20T17:56:59;4.90;99.90
25264;DHT22;13211;51.796;5.808;2022-11-20T17:59:45;4.90;99.90
25264;DHT22;13211;51.796;5.808;2022-11-20T18:02:13;4.90;99.90
25264;DHT22;13211;51.796;5.808;2022-11-20T18:04:41;5.00;99.90
25264;DHT22;13211;51.796;5.808;2022-11-20T18:07:09;5.00;99.90
25264;DHT22;13211;51.796;5.808;2022-11-20T18:09:36;5.00;99.90
25264;DHT22;13211;51.796;5.808;2022-11-20T18:12:04;5.00;99.90
25264;DHT22;13211;51.796;5.808;2022-11-20T18:14:33;5.00;99.90
25264;DHT22;13211;51.796;5.808;2022-11-20T18:17:12;5.00;99.90
25264;DHT22;13211;51.796;5.808;2022-11-20T18:19:43;5.00;99.90
25264;DHT22;13211;51.796;5.808;2022-11-20T18:22:32;5.00;99.90
25264;DHT22;13211;51.796;5.808;2022-11-20T18:25:03;5.00;99.90
25264;DHT22;13211;51.796;5.808;2022-11-20T18:27:33;5.10;99.90
25264;DHT22;13211;51.796;5.808;2022-11-20T18:30:02;5.10;99.90
25264;DHT22;13211;51.796;5.808;2022-11-20T18:32:30;5.10;99.90
25264;DHT22;13211;51.796;5.808;2022-11-20T18:34:59;5.10;99.90
25264;DHT22;13211;51.796;5.808;2022-11-20T18:37:32;5.10;99.90
25264;DHT22;13211;51.796;5.808;2022-11-20T18:40:00;5.20;99.90
25264;DHT22;13211;51.796;5.808;2022-11-20T18:42:35;5.20;99.90
25264;DHT22;13211;51.796;5.808;2022-11-20T18:45:21;5.20;99.90
25264;DHT22;13211;51.796;5.808;2022-11-20T18:47:52;5.20;99.90
25264;DHT22;13211;51.796;5.808;2022-11-20T18:50:19;5.20;99.90
25264;DHT22;13211;51.796;5.808;2022-11-20T18:52:47;5.20;99.90
25264;DHT22;13211;51.796;5.808;2022-11-20T18:55:14;5.20;99.90
25264;DHT22;13211;51.796;5.808;2022-11-20T18:57:41;5.30;99.90
25264;DHT22;13211;51.796;5.808;2022-11-20T19:00:09;5.30;99.90
25264;DHT22;13211;51.796;5.808;2022-11-20T19:02:37;5.30;99.90
25264;DHT22;13211;51.796;5.808;2022-11-20T19:05:15;5.30;99.90
25264;DHT22;13211;51.796;5.808;2022-11-20T19:07:43;5.30;99.90
25264;DHT22;13211;51.796;5.808;2022-11-20T19:10:10;5.30;99.90
25264;DHT22;13211;51.796;5.808;2022-11-20T19:12:37;5.30;99.90
25264;DHT22;13211;51.796;5.808;2022-11-20T19:15:05;5.30;99.90
25264;DHT22;13211;51.796;5.808;2022-11-20T19:17:33;5.30;99.90
25264;DHT22;13211;51.796;5.808;2022-11-20T19:20:00;5.30;99.90
25264;DHT22;13211;51.796;5.808;2022-11-20T19:22:31;5.30;99.90
25264;DHT22;13211;51.796;5.808;2022-11-20T19:24:59;5.30;99.90
25264;DHT22;13211;51.796;5.808;2022-11-20T19:27:26;5.30;99.90
25264;DHT22;13211;51.796;5.808;2022-11-20T19:29:54;5.20;99.90
25264;DHT22;13211;51.796;5.808;2022-11-20T19:32:30;5.30;99.90
25264;DHT22;13211;51.796;5.808;2022-11-20T19:34:59;5.20;99.90
25264;DHT22;13211;51.796;5.808;2022-11-20T19:37:28;5.20;99.90
25264;DHT22;13211;51.796;5.808;2022-11-20T19:39:59;5.20;99.90
25264;DHT22;13211;51.796;5.808;2022-11-20T19:42:30;5.20;99.90
25264;DHT22;13211;51.796;5.808;2022-11-20T19:44:59;5.30;99.90
25264;DHT22;13211;51.796;5.808;2022-11-20T19:47:32;5.20;99.90
25264;DHT22;13211;51.796;5.808;2022-11-20T19:50:20;5.20;99.90
25264;DHT22;13211;51.796;5.808;2022-11-20T19:52:47;5.20;99.90
25264;DHT22;13211;51.796;5.808;2022-11-20T19:55:21;5.20;99.90
25264;DHT22;13211;51.796;5.808;2022-11-20T19:57:50;5.20;99.90
25264;DHT22;13211;51.796;5.808;2022-11-20T20:00:17;5.20;99.90
25264;DHT22;13211;51.796;5.808;2022-11-20T20:02:54;5.20;99.90
25264;DHT22;13211;51.796;5.808;2022-11-20T20:05:22;5.20;99.90
25264;DHT22;13211;51.796;5.808;2022-11-20T20:07:49;5.10;99.90
25264;DHT22;13211;51.796;5.808;2022-11-20T20:10:16;5.10;99.90
25264;DHT22;13211;51.796;5.808;2022-11-20T20:12:44;5.10;99.90
25264;DHT22;13211;51.796;5.808;2022-11-20T20:15:11;5.10;99.90
25264;DHT22;13211;51.796;5.808;2022-11-20T20:17:38;5.10;99.90
25264;DHT22;13211;51.796;5.808;2022-11-20T20:20:06;5.10;99.90
25264;DHT22;13211;51.796;5.808;2022-11-20T20:22:34;5.10;99.90
25264;DHT22;13211;51.796;5.808;2022-11-20T20:25:02;5.10;99.90
25264;DHT22;13211;51.796;5.808;2022-11-20T20:27:33;5.10;99.90
25264;DHT22;13211;51.796;5.808;2022-11-20T20:30:04;5.10;99.90
25264;DHT22;13211;51.796;5.808;2022-11-20T20:32:33;5.10;99.90
25264;DHT22;13211;51.796;5.808;2022-11-20T20:35:06;5.10;99.90
25264;DHT22;13211;51.796;5.808;2022-11-20T20:37:33;5.00;99.90
25264;DHT22;13211;51.796;5.808;2022-11-20T20:40:02;5.00;99.90
25264;DHT22;13211;51.796;5.808;2022-11-20T20:42:29;5.00;99.90
25264;DHT22;13211;51.796;5.808;2022-11-20T20:44:59;5.00;99.90
25264;DHT22;13211;51.796;5.808;2022-11-20T20:47:35;5.00;99.90
25264;DHT22;13211;51.796;5.808;2022-11-20T20:50:08;5.00;99.90
25264;DHT22;13211;51.796;5.808;2022-11-20T20:52:35;5.00;99.90
25264;DHT22;13211;51.796;5.808;2022-11-20T20:55:03;5.00;99.90
25264;DHT22;13211;51.796;5.808;2022-11-20T20:57:32;5.00;99.90
25264;DHT22;13211;51.796;5.808;2022-11-20T21:00:03;5.00;99.90
25264;DHT22;13211;51.796;5.808;2022-11-20T21:02:32;5.10;99.90
25264;DHT22;13211;51.796;5.808;2022-11-20T21:05:06;5.10;99.90
25264;DHT22;13211;51.796;5.808;2022-11-20T21:07:36;5.10;99.90
25264;DHT22;13211;51.796;5.808;2022-11-20T21:10:41;5.10;99.90
25264;DHT22;13211;51.796;5.808;2022-11-20T21:13:09;5.10;99.90
25264;DHT22;13211;51.796;5.808;2022-11-20T21:15:38;5.10;99.90
25264;DHT22;13211;51.796;5.808;2022-11-20T21:18:06;5.10;99.90
25264;DHT22;13211;51.796;5.808;2022-11-20T21:20:33;5.10;99.90
25264;DHT22;13211;51.796;5.808;2022-11-20T21:23:18;5.10;99.90
25264;DHT22;13211;51.796;5.808;2022-11-20T21:25:46;5.10;99.90
25264;DHT22;13211;51.796;5.808;2022-11-20T21:28:13;5.10;99.90
25264;DHT22;13211;51.796;5.808;2022-11-20T21:30:44;5.10;99.90
25264;DHT22;13211;51.796;5.808;2022-11-20T21:33:12;5.10;99.90
25264;DHT22;13211;51.796;5.808;2022-11-20T21:35:40;5.10;99.90
25264;DHT22;13211;51.796;5.808;2022-11-20T21:38:08;5.10;99.90
25264;DHT22;13211;51.796;5.808;2022-11-20T21:40:35;5.10;99.90
25264;DHT22;13211;51.796;5.808;2022-11-20T21:43:03;5.10;99.90
25264;DHT22;13211;51.796;5.808;2022-11-20T21:45:30;5.10;99.90
25264;DHT22;13211;51.796;5.808;2022-11-20T21:48:03;5.10;99.90
25264;DHT22;13211;51.796;5.808;2022-11-20T21:50:33;5.10;99.90
25264;DHT22;13211;51.796;5.808;2022-11-20T21:53:02;5.10;99.90
25264;DHT22;13211;51.796;5.808;2022-11-20T21:55:30;5.10;99.90
25264;DHT22;13211;51.796;5.808;2022-11-20T21:58:00;5.10;99.90
25264;DHT22;13211;51.796;5.808;2022-11-20T22:00:30;5.10;99.90
25264;DHT22;13211;51.796;5.808;2022-11-20T22:03:03;5.10;99.90
25264;DHT22;13211;51.796;5.808;2022-11-20T22:05:33;5.10;99.90
25264;DHT22;13211;51.796;5.808;2022-11-20T22:08:04;5.10;99.90
25264;DHT22;13211;51.796;5.808;2022-11-20T22:10:33;5.10;99.90
25264;DHT22;13211;51.796;5.808;2022-11-20T22:13:00;5.10;99.90
25264;DHT22;13211;51.796;5.808;2022-11-20T22:15:47;5.10;99.90
25264;DHT22;13211;51.796;5.808;2022-11-20T22:18:30;5.10;99.90
25264;DHT22;13211;51.796;5.808;2022-11-20T22:21:10;5.10;99.90
25264;DHT22;13211;51.796;5.808;2022-11-20T22:23:42;5.10;99.90
25264;DHT22;13211;51.796;5.808;2022-11-20T22:26:13;5.10;99.90
25264;DHT22;13211;51.796;5.808;2022-11-20T22:28:40;5.10;99.90
25264;DHT22;13211;51.796;5.808;2022-11-20T22:31:17;5.10;99.90
25264;DHT22;13211;51.796;5.808;2022-11-20T22:33:45;5.10;99.90
25264;DHT22;13211;51.796;5.808;2022-11-20T22:36:17;5.10;99.90
25264;DHT22;13211;51.796;5.808;2022-11-20T22:38:46;5.10;99.90
25264;DHT22;13211;51.796;5.808;2022-11-20T22:41:16;5.10;99.90
25264;DHT22;13211;51.796;5.808;2022-11-20T22:43:45;5.00;99.90
25264;DHT22;13211;51.796;5.808;2022-11-20T22:46:15;5.00;99.90
25264;DHT22;13211;51.796;5.808;2022-11-20T22:48:51;5.00;99.90
25264;DHT22;13211;51.796;5.808;2022-11-20T22:51:21;5.00;99.90
25264;DHT22;13211;51.796;5.808;2022-11-20T22:53:49;5.10;99.90
25264;DHT22;13211;51.796;5.808;2022-11-20T22:56:17;5.10;99.90
25264;DHT22;13211;51.796;5.808;2022-11-20T22:58:47;5.10;99.90
25264;DHT22;13211;51.796;5.808;2022-11-20T23:01:21;5.10;99.90
25264;DHT22;13211;51.796;5.808;2022-11-20T23:03:54;5.10;99.90
25264;DHT22;13211;51.796;5.808;2022-11-20T23:06:22;5.10;99.90
25264;DHT22;13211;51.796;5.808;2022-11-20T23:08:50;5.10;99.90
25264;DHT22;13211;51.796;5.808;2022-11-20T23:11:20;5.00;99.90
25264;DHT22;13211;51.796;5.808;2022-11-20T23:14:00;5.00;99.90
25264;DHT22;13211;51.796;5.808;2022-11-20T23:16:30;5.00;99.90
25264;DHT22;13211;51.796;5.808;2022-11-20T23:19:08;5.10;99.90
25264;DHT22;13211;51.796;5.808;2022-11-20T23:21:39;5.10;99.90
25264;DHT22;13211;51.796;5.808;2022-11-20T23:24:10;5.10;99.90
25264;DHT22;13211;51.796;5.808;2022-11-20T23:26:39;5.10;99.90
25264;DHT22;13211;51.796;5.808;2022-11-20T23:29:07;5.10;99.90
25264;DHT22;13211;51.796;5.808;2022-11-20T23:31:35;5.10;99.90
25264;DHT22;13211;51.796;5.808;2022-11-20T23:34:03;5.10;99.90
25264;DHT22;13211;51.796;5.808;2022-11-20T23:36:31;5.10;99.90
25264;DHT22;13211;51.796;5.808;2022-11-20T23:39:02;5.10;99.90
25264;DHT22;13211;51.796;5.808;2022-11-20T23:41:29;5.10;99.90
25264;DHT22;13211;51.796;5.808;2022-11-20T23:44:00;5.10;99.90
25264;DHT22;13211;51.796;5.808;2022-11-20T23:46:30;5.00;99.90
25264;DHT22;13211;51.796;5.808;2022-11-20T23:48:58;5.10;99.90
25264;DHT22;13211;51.796;5.808;2022-11-20T23:51:25;5.00;99.90
25264;DHT22;13211;51.796;5.808;2022-11-20T23:53:53;5.00;99.90
25264;DHT22;13211;51.796;5.808;2022-11-20T23:56:20;5.00;99.90
25264;DHT22;13211;51.796;5.808;2022-11-20T23:58:48;4.90;99.90
